»·PEaware :: N350TN KAVX-L35

N350TN :: KAVX-L35

FLIGHT INFORMATION

Flight Status: Arrived
Operator: Privately registered:
United States
More flights under this callsign
Pilot: David W. (17415)
Aircraft: PIPER PA-31/31P NAVAJO CHIEFTAIN
(PA31)
More flights by this aircraft type
Origin: KAVX Catalina
United States
Destination: L35 Big Bear City
United States
More flights between these airports :: More routes between these airports
Route: SXC SLI PDZ ARRAN
File this flight plan on PilotEdge
Remarks:
Altitude:
(Current/Filed)
11,000ft
Speed:
(Current/Filed)
165kts
Departed: 03-Dec-17 08:30 PM
Arrived: 03-Dec-17 09:06 PM
Distance/Time
Traveled:
93nm/0:35
Distance/Time
To Go:
Arrived

Flight Plot

Page will automatically refresh every two minutes.

Flight plan parsing failed; only flown route is shown


Map Options




Map Legend


Flown Route
Filed Route
Departure Airport
Arrival Airport
Navaid (VOR, NDB)
Fix

Horizontal Profiles

Position Reports

Time Latitude Longitude Heading Altitude Ground
Speed
03-Dec-17 20:14 33.403899 -118.415235 145 1606ft 0kts
03-Dec-17 20:15 33.403899 -118.415234 145 1606ft 0kts
03-Dec-17 20:16 33.403899 -118.415234 145 1606ft 0kts
03-Dec-17 20:17 33.403898 -118.415234 145 1606ft 0kts
03-Dec-17 20:18 33.403898 -118.415234 145 1606ft 0kts
03-Dec-17 20:19 33.403898 -118.415234 145 1606ft 0kts
03-Dec-17 20:20 33.403898 -118.415233 145 1606ft 0kts
03-Dec-17 20:21 33.403897 -118.415233 145 1606ft 0kts
03-Dec-17 20:22 33.403897 -118.415233 145 1606ft 0kts
03-Dec-17 20:23 33.403897 -118.415233 145 1606ft 0kts
03-Dec-17 20:24 33.403896 -118.415232 145 1606ft 0kts
03-Dec-17 20:25 33.403896 -118.415232 145 1606ft 0kts
03-Dec-17 20:26 33.403592 -118.416520 301 1606ft 10kts
03-Dec-17 20:27 33.402474 -118.419319 232 1606ft 10kts
03-Dec-17 20:28 33.402291 -118.419657 230 1606ft 0kts
03-Dec-17 20:29 33.402290 -118.419658 230 1606ft 0kts
03-Dec-17 20:30 33.402290 -118.419659 230 1606ft 0kts
03-Dec-17 20:31 33.402289 -118.419659 230 1606ft 0kts
03-Dec-17 20:32 33.402289 -118.419660 230 1606ft 0kts
03-Dec-17 20:33 33.402322 -118.419854 309 1606ft 0kts
03-Dec-17 20:34 33.402330 -118.419865 311 1606ft 0kts
03-Dec-17 20:35 33.418080 -118.408873 331 2031ft 109kts
03-Dec-17 20:36 33.410896 -118.427221 172 3199ft 131kts
03-Dec-17 20:37 33.376942 -118.419896 172 4937ft 117kts
03-Dec-17 20:38 33.371160 -118.395183 5 6383ft 97kts
03-Dec-17 20:39 33.398537 -118.392028 3 7456ft 103kts
03-Dec-17 20:40 33.424631 -118.372343 24 8814ft 101kts
03-Dec-17 20:41 33.450074 -118.349054 25 9944ft 118kts
03-Dec-17 20:42 33.477470 -118.325595 18 11044ft 122kts
03-Dec-17 20:43 33.514993 -118.291595 29 11089ft 191kts
03-Dec-17 20:44 33.554577 -118.257158 26 10965ft 186kts
03-Dec-17 20:45 33.596947 -118.222594 31 11003ft 184kts
03-Dec-17 20:46 33.631273 -118.190580 28 11092ft 180kts
03-Dec-17 20:47 33.674558 -118.152873 27 10994ft 199kts
03-Dec-17 20:48 33.716919 -118.112689 30 11026ft 200kts
03-Dec-17 20:49 33.756162 -118.075595 29 11057ft 199kts
03-Dec-17 20:50 33.789546 -118.024853 61 11071ft 209kts
03-Dec-17 20:51 33.812342 -117.959819 74 11000ft 221kts
03-Dec-17 20:52 33.823279 -117.887450 69 10965ft 225kts
03-Dec-17 20:53 33.844239 -117.819738 67 11045ft 212kts
03-Dec-17 20:54 33.861090 -117.752455 65 11021ft 212kts
03-Dec-17 20:55 33.877886 -117.684409 70 11042ft 212kts
03-Dec-17 20:56 33.894277 -117.616683 69 11035ft 213kts
03-Dec-17 20:57 33.913580 -117.549744 62 11062ft 208kts
03-Dec-17 20:58 33.948363 -117.497458 39 11052ft 203kts
03-Dec-17 20:59 33.986766 -117.447283 43 10992ft 207kts
03-Dec-17 21:00 34.027681 -117.400964 33 10988ft 202kts
03-Dec-17 21:01 34.067012 -117.351405 40 11054ft 209kts
03-Dec-17 21:02 34.108267 -117.302313 36 11025ft 212kts
03-Dec-17 21:03 34.147711 -117.251336 37 11048ft 207kts
03-Dec-17 21:04 34.189629 -117.205084 40 10993ft 203kts
03-Dec-17 21:05 34.221710 -117.152608 69 11104ft 205kts
03-Dec-17 21:06 34.231090 -117.083319 78 11121ft 212kts
03-Dec-17 21:07 34.241046 -117.011142 74 10336ft 208kts
03-Dec-17 21:08 34.256931 -116.945770 57 8546ft 195kts
03-Dec-17 21:09 34.263529 -116.892645 91 7315ft 127kts
03-Dec-17 21:10 34.263802 -116.855195 87 6756ft 64kts
03-Dec-17 21:11 34.263767 -116.846509 125 6756ft 6kts
03-Dec-17 21:12 34.263243 -116.850807 265 6756ft 17kts
03-Dec-17 21:13 34.262635 -116.853313 182 6756ft 0kts

Navigation Log

Ident Type
Flight plan parsing failed, navigation log unavailable